sensor_id;sensor_type;location;lat;lon;timestamp;P1;P2;P0
48887;PMS5003;42598;53.802;-1.632;2023-02-27T00:01:43;10;9;
48887;PMS5003;42598;53.802;-1.632;2023-02-27T00:04:10;6;6;
48887;PMS5003;42598;53.802;-1.632;2023-02-27T00:06:36;6;6;
48887;PMS5003;42598;53.802;-1.632;2023-02-27T00:09:03;5;5;
48887;PMS5003;42598;53.802;-1.632;2023-02-27T00:11:30;8;7;
48887;PMS5003;42598;53.802;-1.632;2023-02-27T00:13:57;4;4;
48887;PMS5003;42598;53.802;-1.632;2023-02-27T00:16:24;6;6;
48887;PMS5003;42598;53.802;-1.632;2023-02-27T00:18:51;6;6;
48887;PMS5003;42598;53.802;-1.632;2023-02-27T00:21:17;3;3;
48887;PMS5003;42598;53.802;-1.632;2023-02-27T00:23:45;7;4;
48887;PMS5003;42598;53.802;-1.632;2023-02-27T00:26:12;5;4;
48887;PMS5003;42598;53.802;-1.632;2023-02-27T00:28:39;6;5;
48887;PMS5003;42598;53.802;-1.632;2023-02-27T00:31:06;5;5;
48887;PMS5003;42598;53.802;-1.632;2023-02-27T00:33:32;7;6;
48887;PMS5003;42598;53.802;-1.632;2023-02-27T00:36:00;6;4;
48887;PMS5003;42598;53.802;-1.632;2023-02-27T00:38:28;7;5;
48887;PMS5003;42598;53.802;-1.632;2023-02-27T00:40:55;8;7;
48887;PMS5003;42598;53.802;-1.632;2023-02-27T00:43:22;7;6;
48887;PMS5003;42598;53.802;-1.632;2023-02-27T00:45:50;5;5;
48887;PMS5003;42598;53.802;-1.632;2023-02-27T00:48:17;5;5;
48887;PMS5003;42598;53.802;-1.632;2023-02-27T00:50:44;6;6;
48887;PMS5003;42598;53.802;-1.632;2023-02-27T00:53:12;5;5;
48887;PMS5003;42598;53.802;-1.632;2023-02-27T00:55:38;7;7;
48887;PMS5003;42598;53.802;-1.632;2023-02-27T00:58:05;6;6;
48887;PMS5003;42598;53.802;-1.632;2023-02-27T01:00:32;5;5;
48887;PMS5003;42598;53.802;-1.632;2023-02-27T01:02:59;6;6;
48887;PMS5003;42598;53.802;-1.632;2023-02-27T01:05:26;8;8;
48887;PMS5003;42598;53.802;-1.632;2023-02-27T01:07:54;7;6;
48887;PMS5003;42598;53.802;-1.632;2023-02-27T01:10:21;8;7;
48887;PMS5003;42598;53.802;-1.632;2023-02-27T01:12:48;10;9;
48887;PMS5003;42598;53.802;-1.632;2023-02-27T01:15:15;10;8;
48887;PMS5003;42598;53.802;-1.632;2023-02-27T01:17:42;8;8;
48887;PMS5003;42598;53.802;-1.632;2023-02-27T01:20:12;7;7;
48887;PMS5003;42598;53.802;-1.632;2023-02-27T01:22:42;8;8;
48887;PMS5003;42598;53.802;-1.632;2023-02-27T01:25:09;8;7;
48887;PMS5003;42598;53.802;-1.632;2023-02-27T01:27:36;7;7;
48887;PMS5003;42598;53.802;-1.632;2023-02-27T01:30:03;8;8;
48887;PMS5003;42598;53.802;-1.632;2023-02-27T01:32:31;9;7;
48887;PMS5003;42598;53.802;-1.632;2023-02-27T01:41:42;8;8;
48887;PMS5003;42598;53.802;-1.632;2023-02-27T01:44:10;6;5;
48887;PMS5003;42598;53.802;-1.632;2023-02-27T01:46:39;5;5;
48887;PMS5003;42598;53.802;-1.632;2023-02-27T01:49:08;7;6;
48887;PMS5003;42598;53.802;-1.632;2023-02-27T01:51:41;5;5;
48887;PMS5003;42598;53.802;-1.632;2023-02-27T01:54:13;7;6;
48887;PMS5003;42598;53.802;-1.632;2023-02-27T01:56:44;5;4;
48887;PMS5003;42598;53.802;-1.632;2023-02-27T01:59:12;6;6;
48887;PMS5003;42598;53.802;-1.632;2023-02-27T02:01:41;5;5;
48887;PMS5003;42598;53.802;-1.632;2023-02-27T02:04:10;6;6;
48887;PMS5003;42598;53.802;-1.632;2023-02-27T02:06:43;4;3;
48887;PMS5003;42598;53.802;-1.632;2023-02-27T02:09:13;5;5;
48887;PMS5003;42598;53.802;-1.632;2023-02-27T02:11:43;6;5;
48887;PMS5003;42598;53.802;-1.632;2023-02-27T02:14:11;5;5;
48887;PMS5003;42598;53.802;-1.632;2023-02-27T02:16:42;5;5;
48887;PMS5003;42598;53.802;-1.632;2023-02-27T02:19:28;7;6;
48887;PMS5003;42598;53.802;-1.632;2023-02-27T02:22:26;5;5;
48887;PMS5003;42598;53.802;-1.632;2023-02-27T02:25:12;6;5;
48887;PMS5003;42598;53.802;-1.632;2023-02-27T02:28:06;7;6;
48887;PMS5003;42598;53.802;-1.632;2023-02-27T02:31:54;5;5;
48887;PMS5003;42598;53.802;-1.632;2023-02-27T02:34:22;5;5;
48887;PMS5003;42598;53.802;-1.632;2023-02-27T02:37:22;7;7;
48887;PMS5003;42598;53.802;-1.632;2023-02-27T02:40:26;7;7;
48887;PMS5003;42598;53.802;-1.632;2023-02-27T02:43:01;6;6;
48887;PMS5003;42598;53.802;-1.632;2023-02-27T02:45:35;6;6;
48887;PMS5003;42598;53.802;-1.632;2023-02-27T02:48:17;8;8;
48887;PMS5003;42598;53.802;-1.632;2023-02-27T02:50:53;7;7;
48887;PMS5003;42598;53.802;-1.632;2023-02-27T02:53:27;10;10;
48887;PMS5003;42598;53.802;-1.632;2023-02-27T02:56:01;8;8;
48887;PMS5003;42598;53.802;-1.632;2023-02-27T02:58:33;10;10;
48887;PMS5003;42598;53.802;-1.632;2023-02-27T03:01:07;10;10;
48887;PMS5003;42598;53.802;-1.632;2023-02-27T03:03:40;6;6;
48887;PMS5003;42598;53.802;-1.632;2023-02-27T03:06:13;7;6;
48887;PMS5003;42598;53.802;-1.632;2023-02-27T03:08:44;10;8;
48887;PMS5003;42598;53.802;-1.632;2023-02-27T03:11:14;7;7;
48887;PMS5003;42598;53.802;-1.632;2023-02-27T03:13:43;11;11;
48887;PMS5003;42598;53.802;-1.632;2023-02-27T03:16:14;9;9;
48887;PMS5003;42598;53.802;-1.632;2023-02-27T03:18:46;9;8;
48887;PMS5003;42598;53.802;-1.632;2023-02-27T03:21:19;8;8;
48887;PMS5003;42598;53.802;-1.632;2023-02-27T03:23:52;8;8;
48887;PMS5003;42598;53.802;-1.632;2023-02-27T03:26:22;8;8;
48887;PMS5003;42598;53.802;-1.632;2023-02-27T03:28:58;9;9;
48887;PMS5003;42598;53.802;-1.632;2023-02-27T03:31:30;8;8;
48887;PMS5003;42598;53.802;-1.632;2023-02-27T03:34:04;7;6;
48887;PMS5003;42598;53.802;-1.632;2023-02-27T03:36:38;9;8;
48887;PMS5003;42598;53.802;-1.632;2023-02-27T03:39:15;7;7;
48887;PMS5003;42598;53.802;-1.632;2023-02-27T03:41:51;7;7;
48887;PMS5003;42598;53.802;-1.632;2023-02-27T03:44:27;9;8;
48887;PMS5003;42598;53.802;-1.632;2023-02-27T03:47:01;7;7;
48887;PMS5003;42598;53.802;-1.632;2023-02-27T03:49:28;6;6;
48887;PMS5003;42598;53.802;-1.632;2023-02-27T03:51:55;9;7;
48887;PMS5003;42598;53.802;-1.632;2023-02-27T03:54:24;8;8;
48887;PMS5003;42598;53.802;-1.632;2023-02-27T03:56:58;13;10;
48887;PMS5003;42598;53.802;-1.632;2023-02-27T03:59:27;10;10;
48887;PMS5003;42598;53.802;-1.632;2023-02-27T04:01:56;8;8;
48887;PMS5003;42598;53.802;-1.632;2023-02-27T04:04:25;7;7;
48887;PMS5003;42598;53.802;-1.632;2023-02-27T04:06:55;7;7;
48887;PMS5003;42598;53.802;-1.632;2023-02-27T04:09:27;8;6;
48887;PMS5003;42598;53.802;-1.632;2023-02-27T04:12:11;10;8;
48887;PMS5003;42598;53.802;-1.632;2023-02-27T04:14:54;8;8;
48887;PMS5003;42598;53.802;-1.632;2023-02-27T04:17:29;9;9;
48887;PMS5003;42598;53.802;-1.632;2023-02-27T04:20:05;7;7;
48887;PMS5003;42598;53.802;-1.632;2023-02-27T04:22:44;10;8;
48887;PMS5003;42598;53.802;-1.632;2023-02-27T04:25:21;7;7;
48887;PMS5003;42598;53.802;-1.632;2023-02-27T04:28:01;8;8;
48887;PMS5003;42598;53.802;-1.632;2023-02-27T04:30:37;8;7;
48887;PMS5003;42598;53.802;-1.632;2023-02-27T04:33:12;6;5;
48887;PMS5003;42598;53.802;-1.632;2023-02-27T04:35:48;7;7;
48887;PMS5003;42598;53.802;-1.632;2023-02-27T04:38:19;7;7;
48887;PMS5003;42598;53.802;-1.632;2023-02-27T04:40:53;6;5;
48887;PMS5003;42598;53.802;-1.632;2023-02-27T04:43:23;6;6;
48887;PMS5003;42598;53.802;-1.632;2023-02-27T04:45:52;6;6;
48887;PMS5003;42598;53.802;-1.632;2023-02-27T04:48:24;4;4;
48887;PMS5003;42598;53.802;-1.632;2023-02-27T04:50:55;5;5;
48887;PMS5003;42598;53.802;-1.632;2023-02-27T04:53:25;4;4;
48887;PMS5003;42598;53.802;-1.632;2023-02-27T04:55:58;3;3;
48887;PMS5003;42598;53.802;-1.632;2023-02-27T04:58:31;3;3;
48887;PMS5003;42598;53.802;-1.632;2023-02-27T05:01:04;5;4;
48887;PMS5003;42598;53.802;-1.632;2023-02-27T05:03:38;3;3;
48887;PMS5003;42598;53.802;-1.632;2023-02-27T05:06:08;3;3;
48887;PMS5003;42598;53.802;-1.632;2023-02-27T05:08:38;4;3;
48887;PMS5003;42598;53.802;-1.632;2023-02-27T05:11:10;5;4;
48887;PMS5003;42598;53.802;-1.632;2023-02-27T05:13:45;5;4;
48887;PMS5003;42598;53.802;-1.632;2023-02-27T05:16:19;3;3;
48887;PMS5003;42598;53.802;-1.632;2023-02-27T05:18:50;5;5;
48887;PMS5003;42598;53.802;-1.632;2023-02-27T05:21:21;6;4;
48887;PMS5003;42598;53.802;-1.632;2023-02-27T05:23:55;4;4;
48887;PMS5003;42598;53.802;-1.632;2023-02-27T05:26:36;4;4;
48887;PMS5003;42598;53.802;-1.632;2023-02-27T05:29:16;4;3;
48887;PMS5003;42598;53.802;-1.632;2023-02-27T05:31:50;5;5;
48887;PMS5003;42598;53.802;-1.632;2023-02-27T05:34:22;4;4;
48887;PMS5003;42598;53.802;-1.632;2023-02-27T05:36:56;5;4;
48887;PMS5003;42598;53.802;-1.632;2023-02-27T05:39:29;6;5;
48887;PMS5003;42598;53.802;-1.632;2023-02-27T05:41:59;5;4;
48887;PMS5003;42598;53.802;-1.632;2023-02-27T05:44:30;5;5;
48887;PMS5003;42598;53.802;-1.632;2023-02-27T05:47:03;7;5;
48887;PMS5003;42598;53.802;-1.632;2023-02-27T05:49:35;7;6;
48887;PMS5003;42598;53.802;-1.632;2023-02-27T05:52:10;5;5;
48887;PMS5003;42598;53.802;-1.632;2023-02-27T05:54:42;7;6;
48887;PMS5003;42598;53.802;-1.632;2023-02-27T05:57:15;5;5;
48887;PMS5003;42598;53.802;-1.632;2023-02-27T05:59:49;4;4;
48887;PMS5003;42598;53.802;-1.632;2023-02-27T06:02:20;5;5;
48887;PMS5003;42598;53.802;-1.632;2023-02-27T06:04:48;6;5;
48887;PMS5003;42598;53.802;-1.632;2023-02-27T06:07:15;5;4;
48887;PMS5003;42598;53.802;-1.632;2023-02-27T06:09:44;6;5;
48887;PMS5003;42598;53.802;-1.632;2023-02-27T06:12:12;4;3;
48887;PMS5003;42598;53.802;-1.632;2023-02-27T06:14:39;6;4;
48887;PMS5003;42598;53.802;-1.632;2023-02-27T06:17:06;4;4;
48887;PMS5003;42598;53.802;-1.632;2023-02-27T06:19:33;3;3;
48887;PMS5003;42598;53.802;-1.632;2023-02-27T06:22:00;4;4;
48887;PMS5003;42598;53.802;-1.632;2023-02-27T06:24:27;8;6;
48887;PMS5003;42598;53.802;-1.632;2023-02-27T06:26:54;6;6;
48887;PMS5003;42598;53.802;-1.632;2023-02-27T06:29:21;4;4;
48887;PMS5003;42598;53.802;-1.632;2023-02-27T06:31:48;5;4;
48887;PMS5003;42598;53.802;-1.632;2023-02-27T06:34:15;4;4;
48887;PMS5003;42598;53.802;-1.632;2023-02-27T06:36:42;4;4;
48887;PMS5003;42598;53.802;-1.632;2023-02-27T06:39:09;4;3;
48887;PMS5003;42598;53.802;-1.632;2023-02-27T06:41:36;3;3;
48887;PMS5003;42598;53.802;-1.632;2023-02-27T06:44:03;3;2;
48887;PMS5003;42598;53.802;-1.632;2023-02-27T06:46:30;5;5;
48887;PMS5003;42598;53.802;-1.632;2023-02-27T06:48:58;4;3;
48887;PMS5003;42598;53.802;-1.632;2023-02-27T06:51:25;3;3;
48887;PMS5003;42598;53.802;-1.632;2023-02-27T06:53:52;4;3;
48887;PMS5003;42598;53.802;-1.632;2023-02-27T06:56:19;4;3;
48887;PMS5003;42598;53.802;-1.632;2023-02-27T06:58:46;4;4;
48887;PMS5003;42598;53.802;-1.632;2023-02-27T07:01:12;5;5;
48887;PMS5003;42598;53.802;-1.632;2023-02-27T07:03:39;4;3;
48887;PMS5003;42598;53.802;-1.632;2023-02-27T07:06:06;5;5;
48887;PMS5003;42598;53.802;-1.632;2023-02-27T07:08:33;3;3;
48887;PMS5003;42598;53.802;-1.632;2023-02-27T07:11:00;5;4;
48887;PMS5003;42598;53.802;-1.632;2023-02-27T07:13:27;6;5;
48887;PMS5003;42598;53.802;-1.632;2023-02-27T07:15:53;5;5;
48887;PMS5003;42598;53.802;-1.632;2023-02-27T07:18:20;4;4;
48887;PMS5003;42598;53.802;-1.632;2023-02-27T07:20:48;5;4;
48887;PMS5003;42598;53.802;-1.632;2023-02-27T07:23:16;4;4;
48887;PMS5003;42598;53.802;-1.632;2023-02-27T07:25:45;5;5;
48887;PMS5003;42598;53.802;-1.632;2023-02-27T07:28:13;5;5;
48887;PMS5003;42598;53.802;-1.632;2023-02-27T07:30:41;4;4;
48887;PMS5003;42598;53.802;-1.632;2023-02-27T07:33:08;4;4;
48887;PMS5003;42598;53.802;-1.632;2023-02-27T07:35:35;5;4;
48887;PMS5003;42598;53.802;-1.632;2023-02-27T07:38:07;7;6;
48887;PMS5003;42598;53.802;-1.632;2023-02-27T07:40:34;5;5;
48887;PMS5003;42598;53.802;-1.632;2023-02-27T07:43:01;5;4;
48887;PMS5003;42598;53.802;-1.632;2023-02-27T07:45:28;5;5;
48887;PMS5003;42598;53.802;-1.632;2023-02-27T07:47:55;5;4;
48887;PMS5003;42598;53.802;-1.632;2023-02-27T07:50:22;5;4;
48887;PMS5003;42598;53.802;-1.632;2023-02-27T07:52:48;6;6;
48887;PMS5003;42598;53.802;-1.632;2023-02-27T07:55:18;5;5;
48887;PMS5003;42598;53.802;-1.632;2023-02-27T07:57:45;6;5;
48887;PMS5003;42598;53.802;-1.632;2023-02-27T08:00:12;5;5;
48887;PMS5003;42598;53.802;-1.632;2023-02-27T08:02:40;5;3;
48887;PMS5003;42598;53.802;-1.632;2023-02-27T08:05:07;5;5;
48887;PMS5003;42598;53.802;-1.632;2023-02-27T08:07:35;5;5;
48887;PMS5003;42598;53.802;-1.632;2023-02-27T08:10:02;4;4;
48887;PMS5003;42598;53.802;-1.632;2023-02-27T08:12:30;4;4;
48887;PMS5003;42598;53.802;-1.632;2023-02-27T08:14:57;12;11;
48887;PMS5003;42598;53.802;-1.632;2023-02-27T08:17:25;6;4;
48887;PMS5003;42598;53.802;-1.632;2023-02-27T08:19:52;6;6;
48887;PMS5003;42598;53.802;-1.632;2023-02-27T08:22:19;6;6;
48887;PMS5003;42598;53.802;-1.632;2023-02-27T08:24:46;8;8;
48887;PMS5003;42598;53.802;-1.632;2023-02-27T08:27:13;37;37;
48887;PMS5003;42598;53.802;-1.632;2023-02-27T08:29:41;24;22;
48887;PMS5003;42598;53.802;-1.632;2023-02-27T08:32:07;6;6;
48887;PMS5003;42598;53.802;-1.632;2023-02-27T08:34:34;5;4;
48887;PMS5003;42598;53.802;-1.632;2023-02-27T08:37:01;4;4;
48887;PMS5003;42598;53.802;-1.632;2023-02-27T08:39:28;7;6;
48887;PMS5003;42598;53.802;-1.632;2023-02-27T08:41:55;8;8;
48887;PMS5003;42598;53.802;-1.632;2023-02-27T08:44:22;7;6;
48887;PMS5003;42598;53.802;-1.632;2023-02-27T08:46:49;5;4;
48887;PMS5003;42598;53.802;-1.632;2023-02-27T08:49:16;5;5;
48887;PMS5003;42598;53.802;-1.632;2023-02-27T08:51:44;10;10;
48887;PMS5003;42598;53.802;-1.632;2023-02-27T08:54:11;7;7;
48887;PMS5003;42598;53.802;-1.632;2023-02-27T08:56:38;4;4;
48887;PMS5003;42598;53.802;-1.632;2023-02-27T08:59:05;3;3;
48887;PMS5003;42598;53.802;-1.632;2023-02-27T09:01:32;3;3;
48887;PMS5003;42598;53.802;-1.632;2023-02-27T09:03:59;4;3;
48887;PMS5003;42598;53.802;-1.632;2023-02-27T09:06:27;5;4;
48887;PMS5003;42598;53.802;-1.632;2023-02-27T09:08:55;2;2;
48887;PMS5003;42598;53.802;-1.632;2023-02-27T09:11:22;2;2;
48887;PMS5003;42598;53.802;-1.632;2023-02-27T09:13:49;2;2;
48887;PMS5003;42598;53.802;-1.632;2023-02-27T09:16:16;3;3;
48887;PMS5003;42598;53.802;-1.632;2023-02-27T09:18:43;3;3;
48887;PMS5003;42598;53.802;-1.632;2023-02-27T09:21:11;5;3;
48887;PMS5003;42598;53.802;-1.632;2023-02-27T09:23:39;4;4;
48887;PMS5003;42598;53.802;-1.632;2023-02-27T09:26:07;2;2;
48887;PMS5003;42598;53.802;-1.632;2023-02-27T09:28:34;1;1;
48887;PMS5003;42598;53.802;-1.632;2023-02-27T09:31:02;5;5;
48887;PMS5003;42598;53.802;-1.632;2023-02-27T09:33:30;2;2;
48887;PMS5003;42598;53.802;-1.632;2023-02-27T09:35:58;2;1;
48887;PMS5003;42598;53.802;-1.632;2023-02-27T09:38:25;3;3;
48887;PMS5003;42598;53.802;-1.632;2023-02-27T09:40:52;2;2;
48887;PMS5003;42598;53.802;-1.632;2023-02-27T09:43:22;1;1;
48887;PMS5003;42598;53.802;-1.632;2023-02-27T09:45:54;2;2;
48887;PMS5003;42598;53.802;-1.632;2023-02-27T09:48:27;2;2;
48887;PMS5003;42598;53.802;-1.632;2023-02-27T09:50:57;1;1;
48887;PMS5003;42598;53.802;-1.632;2023-02-27T09:53:28;1;1;
48887;PMS5003;42598;53.802;-1.632;2023-02-27T09:56:00;2;2;
48887;PMS5003;42598;53.802;-1.632;2023-02-27T09:58:36;1;1;
48887;PMS5003;42598;53.802;-1.632;2023-02-27T10:01:12;2;2;
48887;PMS5003;42598;53.802;-1.632;2023-02-27T10:03:50;1;1;
48887;PMS5003;42598;53.802;-1.632;2023-02-27T10:06:30;1;1;
48887;PMS5003;42598;53.802;-1.632;2023-02-27T10:09:05;2;2;
48887;PMS5003;42598;53.802;-1.632;2023-02-27T10:11:45;1;1;
48887;PMS5003;42598;53.802;-1.632;2023-02-27T10:14:24;2;1;
48887;PMS5003;42598;53.802;-1.632;2023-02-27T10:17:01;2;1;
48887;PMS5003;42598;53.802;-1.632;2023-02-27T10:19:34;4;2;
48887;PMS5003;42598;53.802;-1.632;2023-02-27T10:22:05;2;2;
48887;PMS5003;42598;53.802;-1.632;2023-02-27T10:24:41;1;1;
48887;PMS5003;42598;53.802;-1.632;2023-02-27T10:27:13;2;1;
48887;PMS5003;42598;53.802;-1.632;2023-02-27T10:29:45;2;2;
48887;PMS5003;42598;53.802;-1.632;2023-02-27T10:32:12;2;2;
48887;PMS5003;42598;53.802;-1.632;2023-02-27T10:34:45;2;2;
48887;PMS5003;42598;53.802;-1.632;2023-02-27T10:37:17;1;1;
48887;PMS5003;42598;53.802;-1.632;2023-02-27T10:39:50;1;1;
48887;PMS5003;42598;53.802;-1.632;2023-02-27T10:42:23;1;1;
48887;PMS5003;42598;53.802;-1.632;2023-02-27T10:44:54;2;2;
48887;PMS5003;42598;53.802;-1.632;2023-02-27T10:47:22;4;3;
48887;PMS5003;42598;53.802;-1.632;2023-02-27T10:49:50;2;2;
48887;PMS5003;42598;53.802;-1.632;2023-02-27T10:52:19;1;1;
48887;PMS5003;42598;53.802;-1.632;2023-02-27T10:54:47;2;2;
48887;PMS5003;42598;53.802;-1.632;2023-02-27T10:57:20;1;1;
48887;PMS5003;42598;53.802;-1.632;2023-02-27T10:59:53;1;1;
48887;PMS5003;42598;53.802;-1.632;2023-02-27T11:02:24;2;2;
48887;PMS5003;42598;53.802;-1.632;2023-02-27T11:04:58;2;2;
48887;PMS5003;42598;53.802;-1.632;2023-02-27T11:07:27;2;2;
48887;PMS5003;42598;53.802;-1.632;2023-02-27T11:09:57;2;2;
48887;PMS5003;42598;53.802;-1.632;2023-02-27T11:12:28;2;2;
48887;PMS5003;42598;53.802;-1.632;2023-02-27T11:14:57;2;1;
48887;PMS5003;42598;53.802;-1.632;2023-02-27T11:17:26;5;5;
48887;PMS5003;42598;53.802;-1.632;2023-02-27T11:19:55;3;2;
48887;PMS5003;42598;53.802;-1.632;2023-02-27T11:22:24;3;2;
48887;PMS5003;42598;53.802;-1.632;2023-02-27T11:25:08;0;0;
48887;PMS5003;42598;53.802;-1.632;2023-02-27T11:27:43;1;1;
48887;PMS5003;42598;53.802;-1.632;2023-02-27T11:30:20;1;0;
48887;PMS5003;42598;53.802;-1.632;2023-02-27T11:32:49;0;0;
48887;PMS5003;42598;53.802;-1.632;2023-02-27T11:35:19;1;1;
48887;PMS5003;42598;53.802;-1.632;2023-02-27T11:37:51;1;1;
48887;PMS5003;42598;53.802;-1.632;2023-02-27T11:40:21;2;1;
48887;PMS5003;42598;53.802;-1.632;2023-02-27T11:42:54;2;1;
48887;PMS5003;42598;53.802;-1.632;2023-02-27T11:45:26;1;1;
48887;PMS5003;42598;53.802;-1.632;2023-02-27T11:47:57;2;2;
48887;PMS5003;42598;53.802;-1.632;2023-02-27T11:50:31;1;1;
48887;PMS5003;42598;53.802;-1.632;2023-02-27T11:53:08;0;0;
48887;PMS5003;42598;53.802;-1.632;2023-02-27T11:56:56;0;0;
48887;PMS5003;42598;53.802;-1.632;2023-02-27T11:59:27;1;1;
48887;PMS5003;42598;53.802;-1.632;2023-02-27T12:02:04;1;0;
48887;PMS5003;42598;53.802;-1.632;2023-02-27T12:04:44;2;1;
48887;PMS5003;42598;53.802;-1.632;2023-02-27T12:07:17;1;1;
48887;PMS5003;42598;53.802;-1.632;2023-02-27T12:09:52;1;1;
48887;PMS5003;42598;53.802;-1.632;2023-02-27T12:12:28;0;0;
48887;PMS5003;42598;53.802;-1.632;2023-02-27T12:15:04;0;0;
48887;PMS5003;42598;53.802;-1.632;2023-02-27T12:17:41;0;0;
48887;PMS5003;42598;53.802;-1.632;2023-02-27T12:20:30;1;1;
48887;PMS5003;42598;53.802;-1.632;2023-02-27T12:23:13;1;0;
48887;PMS5003;42598;53.802;-1.632;2023-02-27T12:25:46;0;0;
48887;PMS5003;42598;53.802;-1.632;2023-02-27T12:28:22;0;0;
48887;PMS5003;42598;53.802;-1.632;2023-02-27T12:31:02;0;0;
48887;PMS5003;42598;53.802;-1.632;2023-02-27T12:33:40;0;0;
48887;PMS5003;42598;53.802;-1.632;2023-02-27T12:36:15;0;0;
48887;PMS5003;42598;53.802;-1.632;2023-02-27T12:38:42;0;0;
48887;PMS5003;42598;53.802;-1.632;2023-02-27T12:41:14;0;0;
48887;PMS5003;42598;53.802;-1.632;2023-02-27T12:44:00;1;1;
48887;PMS5003;42598;53.802;-1.632;2023-02-27T12:46:41;0;0;
48887;PMS5003;42598;53.802;-1.632;2023-02-27T12:49:21;0;0;
48887;PMS5003;42598;53.802;-1.632;2023-02-27T12:52:02;1;1;
48887;PMS5003;42598;53.802;-1.632;2023-02-27T12:54:41;0;0;
48887;PMS5003;42598;53.802;-1.632;2023-02-27T12:57:24;0;0;
48887;PMS5003;42598;53.802;-1.632;2023-02-27T13:00:03;0;0;
48887;PMS5003;42598;53.802;-1.632;2023-02-27T13:02:43;0;0;
48887;PMS5003;42598;53.802;-1.632;2023-02-27T13:05:21;0;0;
48887;PMS5003;42598;53.802;-1.632;2023-02-27T13:07:58;0;0;
48887;PMS5003;42598;53.802;-1.632;2023-02-27T13:10:33;2;2;
48887;PMS5003;42598;53.802;-1.632;2023-02-27T13:13:11;0;0;
48887;PMS5003;42598;53.802;-1.632;2023-02-27T13:15:47;0;0;
48887;PMS5003;42598;53.802;-1.632;2023-02-27T13:18:27;0;0;
48887;PMS5003;42598;53.802;-1.632;2023-02-27T13:21:03;0;0;
48887;PMS5003;42598;53.802;-1.632;2023-02-27T13:23:40;0;0;
48887;PMS5003;42598;53.802;-1.632;2023-02-27T13:26:17;0;0;
48887;PMS5003;42598;53.802;-1.632;2023-02-27T13:28:49;0;0;
48887;PMS5003;42598;53.802;-1.632;2023-02-27T13:31:21;0;0;
48887;PMS5003;42598;53.802;-1.632;2023-02-27T13:34:01;0;0;
48887;PMS5003;42598;53.802;-1.632;2023-02-27T13:36:40;1;0;
48887;PMS5003;42598;53.802;-1.632;2023-02-27T13:41:37;0;0;
48887;PMS5003;42598;53.802;-1.632;2023-02-27T13:44:38;0;0;
48887;PMS5003;42598;53.802;-1.632;2023-02-27T13:47:39;0;0;
48887;PMS5003;42598;53.802;-1.632;2023-02-27T13:50:48;1;1;
48887;PMS5003;42598;53.802;-1.632;2023-02-27T13:53:17;0;0;
48887;PMS5003;42598;53.802;-1.632;2023-02-27T13:55:46;0;0;
48887;PMS5003;42598;53.802;-1.632;2023-02-27T13:58:16;2;1;
48887;PMS5003;42598;53.802;-1.632;2023-02-27T14:00:53;0;0;
48887;PMS5003;42598;53.802;-1.632;2023-02-27T14:03:24;0;0;
48887;PMS5003;42598;53.802;-1.632;2023-02-27T14:05:54;0;0;
48887;PMS5003;42598;53.802;-1.632;2023-02-27T14:08:24;0;0;
48887;PMS5003;42598;53.802;-1.632;2023-02-27T14:10:55;0;0;
48887;PMS5003;42598;53.802;-1.632;2023-02-27T14:13:57;0;0;
48887;PMS5003;42598;53.802;-1.632;2023-02-27T14:16:59;0;0;
48887;PMS5003;42598;53.802;-1.632;2023-02-27T14:19:42;0;0;
48887;PMS5003;42598;53.802;-1.632;2023-02-27T14:22:31;0;0;
48887;PMS5003;42598;53.802;-1.632;2023-02-27T14:25:02;0;0;
48887;PMS5003;42598;53.802;-1.632;2023-02-27T14:27:50;0;0;
48887;PMS5003;42598;53.802;-1.632;2023-02-27T14:30:23;0;0;
48887;PMS5003;42598;53.802;-1.632;2023-02-27T14:32:55;0;0;
48887;PMS5003;42598;53.802;-1.632;2023-02-27T14:35:25;0;0;
48887;PMS5003;42598;53.802;-1.632;2023-02-27T14:37:54;0;0;
48887;PMS5003;42598;53.802;-1.632;2023-02-27T14:40:25;0;0;
48887;PMS5003;42598;53.802;-1.632;2023-02-27T14:42:59;0;0;
48887;PMS5003;42598;53.802;-1.632;2023-02-27T14:45:34;0;0;
48887;PMS5003;42598;53.802;-1.632;2023-02-27T14:48:02;0;0;
48887;PMS5003;42598;53.802;-1.632;2023-02-27T14:50:34;0;0;
48887;PMS5003;42598;53.802;-1.632;2023-02-27T14:53:05;0;0;
48887;PMS5003;42598;53.802;-1.632;2023-02-27T14:55:33;0;0;
48887;PMS5003;42598;53.802;-1.632;2023-02-27T14:58:07;0;0;
48887;PMS5003;42598;53.802;-1.632;2023-02-27T15:00:40;0;0;
48887;PMS5003;42598;53.802;-1.632;2023-02-27T15:03:16;0;0;
48887;PMS5003;42598;53.802;-1.632;2023-02-27T15:05:45;1;1;
48887;PMS5003;42598;53.802;-1.632;2023-02-27T15:08:14;0;0;
48887;PMS5003;42598;53.802;-1.632;2023-02-27T15:10:43;0;0;
48887;PMS5003;42598;53.802;-1.632;2023-02-27T15:13:19;0;0;
48887;PMS5003;42598;53.802;-1.632;2023-02-27T15:15:50;0;0;
48887;PMS5003;42598;53.802;-1.632;2023-02-27T15:18:20;0;0;
48887;PMS5003;42598;53.802;-1.632;2023-02-27T15:20:55;1;1;
48887;PMS5003;42598;53.802;-1.632;2023-02-27T15:23:24;0;0;
48887;PMS5003;42598;53.802;-1.632;2023-02-27T15:25:54;0;0;
48887;PMS5003;42598;53.802;-1.632;2023-02-27T15:28:22;1;1;
48887;PMS5003;42598;53.802;-1.632;2023-02-27T15:30:52;1;0;
48887;PMS5003;42598;53.802;-1.632;2023-02-27T15:33:22;0;0;
48887;PMS5003;42598;53.802;-1.632;2023-02-27T15:35:53;1;1;
48887;PMS5003;42598;53.802;-1.632;2023-02-27T15:38:22;3;2;
48887;PMS5003;42598;53.802;-1.632;2023-02-27T15:40:51;1;1;
48887;PMS5003;42598;53.802;-1.632;2023-02-27T15:43:19;0;0;
48887;PMS5003;42598;53.802;-1.632;2023-02-27T15:45:47;2;2;
48887;PMS5003;42598;53.802;-1.632;2023-02-27T15:48:16;2;2;
48887;PMS5003;42598;53.802;-1.632;2023-02-27T15:50:45;3;3;
48887;PMS5003;42598;53.802;-1.632;2023-02-27T15:53:14;2;1;
48887;PMS5003;42598;53.802;-1.632;2023-02-27T15:55:47;2;2;
48887;PMS5003;42598;53.802;-1.632;2023-02-27T15:58:18;1;1;
48887;PMS5003;42598;53.802;-1.632;2023-02-27T16:00:56;2;1;
48887;PMS5003;42598;53.802;-1.632;2023-02-27T16:03:27;0;0;
48887;PMS5003;42598;53.802;-1.632;2023-02-27T16:05:58;1;1;
48887;PMS5003;42598;53.802;-1.632;2023-02-27T16:08:26;2;2;
48887;PMS5003;42598;53.802;-1.632;2023-02-27T16:10:56;2;1;
48887;PMS5003;42598;53.802;-1.632;2023-02-27T16:13:28;1;1;
48887;PMS5003;42598;53.802;-1.632;2023-02-27T16:15:59;2;2;
48887;PMS5003;42598;53.802;-1.632;2023-02-27T16:18:29;1;1;
48887;PMS5003;42598;53.802;-1.632;2023-02-27T16:21:06;1;1;
48887;PMS5003;42598;53.802;-1.632;2023-02-27T16:23:35;1;1;
48887;PMS5003;42598;53.802;-1.632;2023-02-27T16:26:04;1;1;
48887;PMS5003;42598;53.802;-1.632;2023-02-27T16:28:45;0;0;
48887;PMS5003;42598;53.802;-1.632;2023-02-27T16:31:21;2;1;
48887;PMS5003;42598;53.802;-1.632;2023-02-27T16:33:51;0;0;
48887;PMS5003;42598;53.802;-1.632;2023-02-27T16:36:20;1;1;
48887;PMS5003;42598;53.802;-1.632;2023-02-27T16:38:49;0;0;
48887;PMS5003;42598;53.802;-1.632;2023-02-27T16:41:16;1;1;
48887;PMS5003;42598;53.802;-1.632;2023-02-27T16:43:44;3;2;
48887;PMS5003;42598;53.802;-1.632;2023-02-27T16:46:13;2;2;
48887;PMS5003;42598;53.802;-1.632;2023-02-27T16:48:42;3;2;
48887;PMS5003;42598;53.802;-1.632;2023-02-27T16:51:11;7;6;
48887;PMS5003;42598;53.802;-1.632;2023-02-27T16:53:41;4;4;
48887;PMS5003;42598;53.802;-1.632;2023-02-27T16:56:09;5;4;
48887;PMS5003;42598;53.802;-1.632;2023-02-27T16:58:37;3;3;
48887;PMS5003;42598;53.802;-1.632;2023-02-27T17:01:04;3;2;
48887;PMS5003;42598;53.802;-1.632;2023-02-27T17:03:32;3;3;
48887;PMS5003;42598;53.802;-1.632;2023-02-27T17:06:00;2;2;
48887;PMS5003;42598;53.802;-1.632;2023-02-27T17:08:26;2;2;
48887;PMS5003;42598;53.802;-1.632;2023-02-27T17:10:53;2;2;
48887;PMS5003;42598;53.802;-1.632;2023-02-27T17:13:21;1;1;
48887;PMS5003;42598;53.802;-1.632;2023-02-27T17:15:48;1;1;